Etusivu
METAR-TAF:

METAR-TAF

Lentoasemat :

Florianópolis, Santa Catarina, Brasilia

Leveyspiiri: 27-40S, Pituuspiiri: 048-33W, korkeus merenpinnasta: 5 m

Tämänhetkinen sää

Tämä raportti tehtiin 1 tunti ja 13 minuuttia sitten, kello 11.00 UTC
Tuuli 11 kn pohjoisesta
Lämpötila 21°C
Kosteus 73%
Ilmanpaine 1018 hPa
Näkyvyys 10 km tai enemmän
ei pilviä alle 1500 m:ssä eikä cumulonimbus-pilviä

METAR: SBFL 221100Z 01011KT CAVOK 21/16 Q1018

Aika: 10:13 (12:13 UTC)

Sääennuste

Tämä raportti tehtiin 2 tuntia ja 43 minuuttia sitten, kello 09.30 UTC
Ennuste voimassa 22. päivästä klo 12 UTC - 23. päivään klo 12 UTC
Tuuli 10 kn pohjoisesta
Näkyvyys 10 km tai enemmän
Hajanaisia pilviä 4000 ft:n korkeudessa
Tulossa
22. päivästä klo 22 UTC - 22. päivään klo 24 UTC
Tuuli 6 kn pohjoisesta
Hajanaisia pilviä 3000 ft:n korkeudessa

TAF: SBFL 220930Z 2212/2312 36010KT 9999 SCT040 TX24/2215Z TN19/2308Z BECMG 2222/2224 36006KT SCT030 RMK PER

Säähavainnot ja -ennusteet yli 4000 lentoasemalta (METAR- ja TAF-raportit).

Käytössä olevat sääasemat on merkitty karttaan keltaisilla ja punaisilla pisteillä.

Aseta hiiri pisteen päälle nähdäksesi sääaseman nimen.

Klikkaa sitten nähdäksesi säähavainnot ja -ennusteet.

Kartan vaihtaminen: klikkaa mustalla rastilla varustettuja vihreitä pisteitä, niin voit zoomata sisään; viivalla varustettua vihreää pistettä, niin voit zoomata ulos tai vihreitä nuolia, niin pääset viereisille kartoille.


METAR-TAF: